Time;durP1;ratioP1;P1;durP2;ratioP2;P2;SDS_P1;SDS_P2;PMS_P1;PMS_P2;Temp;Humidity;BMP_temperature;BMP_pressure;BME280_temperature;BME280_humidity;BME280_pressure;Samples;Min_cycle;Max_cycle;Signal;HPM_P1;HPM_P2
2022/12/04 00:00:36;;;;;;;;;;;;;;;;;;5093946;28;844;-66
2022/12/04 00:03:01;;;;;;;;;;;;;;;;;;5093097;28;1218;-66
2022/12/04 00:05:26;;;;;;;;;;;;;;;;;;5093963;28;1886;-66
2022/12/04 00:07:51;;;;;;;;;;;;;;;;;;5091655;28;1156;-66
2022/12/04 00:10:17;;;;;;;;;;;;;;;;;;5093566;28;804;-66
2022/12/04 00:12:42;;;;;;;;;;;;;;;;;;5093038;28;951;-67
2022/12/04 00:15:08;;;;;;;;;;;;;;;;;;5094503;28;824;-65
2022/12/04 00:17:33;;;;;;;;;;;;;;;;;;5091870;28;1170;-65
2022/12/04 00:19:58;;;;;;;;;;;;;;;;;;5092764;28;1151;-65
2022/12/04 00:22:24;;;;;;;;;;;;;;;;;;5092034;28;1324;-65
2022/12/04 00:24:49;;;;;;;;;;;;;;;;;;5091696;28;1953;-65
2022/12/04 00:27:14;;;;;;;;;;;;;;;;;;5092517;28;1190;-65
2022/12/04 00:29:39;;;;;;;;;;;;;;;;;;5093504;28;999;-65
2022/12/04 00:32:04;;;;;;;;;;;;;;;;;;5093475;28;888;-65
2022/12/04 00:34:30;;;;;;;;;;;;;;;;;;5075420;28;1151;-65
2022/12/04 00:36:55;;;;;;;;;;;;;;;;;;5091745;28;1003;-65
2022/12/04 00:39:20;;;;;;;;;;;;;;;;;;5092057;28;1301;-66
2022/12/04 00:41:45;;;;;;;;;;;;;;;;;;5090805;28;979;-66
2022/12/04 00:44:11;;;;;;;;;;;;;;;;;;5091971;28;1229;-66
2022/12/04 00:46:36;;;;;;;;;;;;;;;;;;5093362;28;1969;-66
2022/12/04 00:49:01;;;;;;;;;;;;;;;;;;5093112;28;832;-66
2022/12/04 00:51:27;;;;;;;;;;;;;;;;;;5091695;28;825;-66
2022/12/04 00:53:52;;;;;;;;;;;;;;;;;;5090779;28;1372;-66
2022/12/04 00:56:22;;;;;;;;;;;;;;;;;;5091682;28;1190;-66
2022/12/04 00:58:50;;;;;;;;;;;;;;;;;;5093034;28;825;-66
2022/12/04 01:01:17;;;;;;;;;;;;;;;;;;5094236;28;836;-66
2022/12/04 01:03:42;;;;;;;;;;;;;;;;;;5093214;28;829;-66
2022/12/04 01:06:16;;;;;;;;;;;;;;;;;;5092081;28;1886;-66
2022/12/04 01:08:41;;;;;;;;;;;;;;;;;;5092379;28;888;-65
2022/12/04 01:11:06;;;;;;;;;;;;;;;;;;5091829;28;832;-66
2022/12/04 01:13:32;;;;;;;;;;;;;;;;;;5092191;28;1042;-66
2022/12/04 01:15:57;;;;;;;;;;;;;;;;;;5092728;28;892;-66
2022/12/04 01:18:22;;;;;;;;;;;;;;;;;;5092060;28;955;-66
2022/12/04 01:20:48;;;;;;;;;;;;;;;;;;5090462;28;1162;-65
2022/12/04 01:23:14;;;;;;;;;;;;;;;;;;5074126;28;1254;-66
2022/12/04 01:25:39;;;;;;;;;;;;;;;;;;5092141;28;1933;-66
2022/12/04 01:28:04;;;;;;;;;;;;;;;;;;5073950;28;1286;-66
2022/12/04 01:30:29;;;;;;;;;;;;;;;;;;5092418;28;932;-66
2022/12/04 01:32:55;;;;;;;;;;;;;;;;;;5090369;28;1347;-66
2022/12/04 01:35:20;;;;;;;;;;;;;;;;;;5091550;28;1168;-66
2022/12/04 01:37:45;;;;;;;;;;;;;;;;;;5091239;28;837;-66
2022/12/04 01:40:14;;;;;;;;;;;;;;;;;;5091105;28;1003;-66
2022/12/04 01:42:40;;;;;;;;;;;;;;;;;;5091846;28;947;-65
2022/12/04 01:45:23;;;;;;;;;;;;;;;;;;5091835;28;1926;-65
2022/12/04 01:47:48;;;;;;;;;;;;;;;;;;5091066;28;932;-65
2022/12/04 01:50:14;;;;;;;;;;;;;;;;;;5073687;28;1143;-65
2022/12/04 01:52:39;;;;;;;;;;;;;;;;;;5091928;28;789;-65
2022/12/04 01:55:04;;;;;;;;;;;;;;;;;;5091517;28;979;-65
2022/12/04 01:57:31;;;;;;;;;;;;;;;;;;5092152;28;911;-65
2022/12/04 01:59:59;;;;;;;;;;;;;;;;;;5090216;28;1337;-65
2022/12/04 02:02:33;;;;;;;;;;;;;;;;;;5090916;28;1182;-65
2022/12/04 02:04:59;;;;;;;;;;;;;;;;;;5089863;28;1967;-65
2022/12/04 02:07:24;;;;;;;;;;;;;;;;;;5091626;28;828;-65
2022/12/04 02:09:54;;;;;;;;;;;;;;;;;;5089537;28;1200;-65
2022/12/04 02:12:31;;;;;;;;;;;;;;;;;;5092117;28;876;-65
2022/12/04 02:15:09;;;;;;;;;;;;;;;;;;5090030;28;1431;-65
2022/12/04 02:17:59;;;;;;;;;;;;;;;;;;5091331;28;883;-65
2022/12/04 02:20:31;;;;;;;;;;;;;;;;;;5091457;28;895;-65
2022/12/04 02:23:00;;;;;;;;;;;;;;;;;;5088938;28;1204;-65
2022/12/04 02:25:51;;;;;;;;;;;;;;;;;;5091414;28;1963;-65
2022/12/04 02:28:25;;;;;;;;;;;;;;;;;;5086603;28;1268;-65
2022/12/04 02:30:54;;;;;;;;;;;;;;;;;;5090234;28;1166;-65
2022/12/04 02:33:22;;;;;;;;;;;;;;;;;;5092275;28;896;-65
2022/12/04 02:35:53;;;;;;;;;;;;;;;;;;5092105;28;1010;-65
2022/12/04 02:38:45;;;;;;;;;;;;;;;;;;5091558;28;1198;-65
2022/12/04 02:41:11;;;;;;;;;;;;;;;;;;5088245;28;1200;-64
2022/12/04 02:43:59;;;;;;;;;;;;;;;;;;5092066;28;852;-64
2022/12/04 02:46:28;;;;;;;;;;;;;;;;;;5086062;28;1906;-64
2022/12/04 02:48:56;;;;;;;;;;;;;;;;;;5090544;28;1171;-64
2022/12/04 02:51:23;;;;;;;;;;;;;;;;;;5092270;28;805;-64
2022/12/04 02:54:02;;;;;;;;;;;;;;;;;;5091260;28;1185;-64
2022/12/04 02:56:33;;;;;;;;;;;;;;;;;;5089374;28;1181;-64
2022/12/04 02:59:01;;;;;;;;;;;;;;;;;;5090186;28;844;-64
2022/12/04 03:01:32;;;;;;;;;;;;;;;;;;5089515;28;1174;-64
2022/12/04 03:04:17;;;;;;;;;;;;;;;;;;5090224;28;837;-64
2022/12/04 03:06:44;;;;;;;;;;;;;;;;;;5089859;28;1953;-64
2022/12/04 03:09:14;;;;;;;;;;;;;;;;;;5089602;28;1175;-64
2022/12/04 03:11:44;;;;;;;;;;;;;;;;;;5099666;28;1214;-64
2022/12/04 03:14:13;;;;;;;;;;;;;;;;;;5090443;28;1225;-64
2022/12/04 03:16:39;;;;;;;;;;;;;;;;;;5089085;28;1316;-64
2022/12/04 03:19:11;;;;;;;;;;;;;;;;;;5091110;28;845;-63
2022/12/04 03:21:40;;;;;;;;;;;;;;;;;;5090472;28;1029;-64
2022/12/04 03:24:11;;;;;;;;;;;;;;;;;;5091142;28;849;-64
2022/12/04 03:26:47;;;;;;;;;;;;;;;;;;5091186;28;1961;-64
2022/12/04 03:29:13;;;;;;;;;;;;;;;;;;5090384;28;1250;-64
2022/12/04 03:31:49;;;;;;;;;;;;;;;;;;5094471;28;908;-64
2022/12/04 03:34:18;;;;;;;;;;;;;;;;;;5093214;28;1295;-64
2022/12/04 03:36:53;;;;;;;;;;;;;;;;;;5093134;28;1142;-64
2022/12/04 03:39:30;;;;;;;;;;;;;;;;;;5094926;28;865;-64
2022/12/04 03:42:18;;;;;;;;;;;;;;;;;;5092848;28;1189;-64
2022/12/04 03:44:47;;;;;;;;;;;;;;;;;;5092510;28;1973;-64
2022/12/04 03:47:12;;;;;;;;;;;;;;;;;;5094490;28;1002;-64
2022/12/04 03:49:49;;;;;;;;;;;;;;;;;;5093951;28;805;-64
2022/12/04 03:52:14;;;;;;;;;;;;;;;;;;5094138;28;954;-63
2022/12/04 03:54:43;;;;;;;;;;;;;;;;;;5094043;28;939;-64
2022/12/04 03:57:13;;;;;;;;;;;;;;;;;;5092842;28;1238;-64
2022/12/04 03:59:51;;;;;;;;;;;;;;;;;;5092862;28;1546;-64
2022/12/04 04:02:19;;;;;;;;;;;;;;;;;;5092454;28;1467;-64
2022/12/04 04:04:47;;;;;;;;;;;;;;;;;;5093361;28;1898;-64
2022/12/04 04:07:35;;;;;;;;;;;;;;;;;;5094195;28;860;-64
2022/12/04 04:10:04;;;;;;;;;;;;;;;;;;5087468;28;1080;-64
2022/12/04 04:12:33;;;;;;;;;;;;;;;;;;5094132;28;1265;-64
2022/12/04 04:26:14;;;;;;;;;;;;;;;;;;5093672;28;1897;-64
2022/12/04 04:28:40;;;;;;;;;;;;;;;;;;5093304;28;1049;-64
2022/12/04 04:31:18;;;;;;;;;;;;;;;;;;5093985;28;983;-64
2022/12/04 04:33:47;;;;;;;;;;;;;;;;;;5093097;28;936;-64
2022/12/04 04:36:31;;;;;;;;;;;;;;;;;;5093483;28;816;-63
2022/12/04 04:39:03;;;;;;;;;;;;;;;;;;5093101;28;837;-64
2022/12/04 04:41:34;;;;;;;;;;;;;;;;;;5092939;28;1010;-64
2022/12/04 04:44:08;;;;;;;;;;;;;;;;;;5092718;28;903;-64
2022/12/04 04:46:39;;;;;;;;;;;;;;;;;;5093483;28;1910;-64
2022/12/04 04:49:07;;;;;;;;;;;;;;;;;;5092550;28;1186;-63
2022/12/04 04:51:33;;;;;;;;;;;;;;;;;;5093457;28;998;-64
2022/12/04 04:54:00;;;;;;;;;;;;;;;;;;5092024;28;1096;-64
2022/12/04 04:56:26;;;;;;;;;;;;;;;;;;5092417;28;1334;-64
2022/12/04 04:58:51;;;;;;;;;;;;;;;;;;5074823;28;1296;-64
2022/12/04 05:01:18;;;;;;;;;;;;;;;;;;5093159;28;943;-64
2022/12/04 05:03:44;;;;;;;;;;;;;;;;;;5091379;28;1496;-64
2022/12/04 05:06:09;;;;;;;;;;;;;;;;;;5093997;28;1958;-64
2022/12/04 05:08:34;;;;;;;;;;;;;;;;;;5093233;28;892;-64
2022/12/04 05:11:00;;;;;;;;;;;;;;;;;;5091554;28;999;-64
2022/12/04 05:13:27;;;;;;;;;;;;;;;;;;5092673;28;896;-64
2022/12/04 05:15:59;;;;;;;;;;;;;;;;;;5092866;28;905;-64
2022/12/04 05:18:24;;;;;;;;;;;;;;;;;;5092595;28;1174;-66
2022/12/04 05:20:50;;;;;;;;;;;;;;;;;;5092149;28;1066;-64
2022/12/04 05:23:15;;;;;;;;;;;;;;;;;;5091260;28;1057;-64
2022/12/04 05:25:40;;;;;;;;;;;;;;;;;;5074321;28;1898;-64
2022/12/04 05:28:05;;;;;;;;;;;;;;;;;;5092599;28;1302;-64
2022/12/04 05:30:31;;;;;;;;;;;;;;;;;;5092563;28;1046;-64
2022/12/04 05:32:56;;;;;;;;;;;;;;;;;;5092122;28;1030;-64
2022/12/04 05:35:21;;;;;;;;;;;;;;;;;;5092352;28;817;-66
2022/12/04 05:37:47;;;;;;;;;;;;;;;;;;5091622;28;877;-65
2022/12/04 05:40:12;;;;;;;;;;;;;;;;;;5091126;28;876;-66
2022/12/04 05:42:38;;;;;;;;;;;;;;;;;;5092617;28;876;-66
2022/12/04 05:45:03;;;;;;;;;;;;;;;;;;5090486;28;1914;-66
2022/12/04 05:47:28;;;;;;;;;;;;;;;;;;5073859;28;1207;-65
2022/12/04 05:49:54;;;;;;;;;;;;;;;;;;5092052;28;844;-64
2022/12/04 05:52:19;;;;;;;;;;;;;;;;;;5093246;28;879;-65
2022/12/04 05:54:44;;;;;;;;;;;;;;;;;;5092205;28;895;-65
2022/12/04 05:57:10;;;;;;;;;;;;;;;;;;5091424;28;816;-65
2022/12/04 05:59:35;;;;;;;;;;;;;;;;;;5090942;28;852;-65
2022/12/04 06:02:00;;;;;;;;;;;;;;;;;;5090361;28;923;-65
2022/12/04 06:04:26;;;;;;;;;;;;;;;;;;5090156;28;1289;-65
2022/12/04 06:06:52;;;;;;;;;;;;;;;;;;5089732;28;1901;-65
2022/12/04 06:09:17;;;;;;;;;;;;;;;;;;5073193;28;1180;-65
2022/12/04 06:11:42;;;;;;;;;;;;;;;;;;5072814;28;1329;-65
2022/12/04 06:14:10;;;;;;;;;;;;;;;;;;5091937;28;844;-65
2022/12/04 06:16:38;;;;;;;;;;;;;;;;;;5090252;28;1812;-65
2022/12/04 06:19:05;;;;;;;;;;;;;;;;;;5089456;28;1429;-65
2022/12/04 06:21:32;;;;;;;;;;;;;;;;;;5090193;28;1179;-65
2022/12/04 06:23:57;;;;;;;;;;;;;;;;;;5091185;28;805;-65
2022/12/04 06:26:23;;;;;;;;;;;;;;;;;;5091514;28;1898;-65
2022/12/04 06:28:49;;;;;;;;;;;;;;;;;;5090737;28;1096;-64
2022/12/04 06:31:14;;;;;;;;;;;;;;;;;;5090055;28;1301;-64
2022/12/04 06:33:40;;;;;;;;;;;;;;;;;;5090429;28;1194;-63
2022/12/04 06:36:07;;;;;;;;;;;;;;;;;;5089893;28;1415;-63
2022/12/04 06:38:33;;;;;;;;;;;;;;;;;;5090290;28;1216;-64
2022/12/04 06:40:58;;;;;;;;;;;;;;;;;;5090631;28;1144;-64
2022/12/04 06:43:24;;;;;;;;;;;;;;;;;;5072759;28;1386;-63
2022/12/04 06:46:18;;;;;;;;;;;;;;;;;;5090823;28;1924;-63
2022/12/04 06:48:44;;;;;;;;;;;;;;;;;;5076543;28;1271;-63
2022/12/04 06:51:11;;;;;;;;;;;;;;;;;;5089911;28;1261;-64
2022/12/04 06:53:36;;;;;;;;;;;;;;;;;;5090821;28;896;-63
2022/12/04 06:56:03;;;;;;;;;;;;;;;;;;5089495;28;899;-63
2022/12/04 06:58:28;;;;;;;;;;;;;;;;;;5090595;28;920;-64
2022/12/04 07:00:54;;;;;;;;;;;;;;;;;;5090464;28;916;-63
2022/12/04 07:03:20;;;;;;;;;;;;;;;;;;5091166;28;962;-63
2022/12/04 07:05:45;;;;;;;;;;;;;;;;;;5092974;28;1893;-63
2022/12/04 07:08:11;;;;;;;;;;;;;;;;;;5095662;28;868;-63
2022/12/04 07:10:36;;;;;;;;;;;;;;;;;;5095563;28;829;-64
2022/12/04 07:13:02;;;;;;;;;;;;;;;;;;5094059;28;1325;-63
2022/12/04 07:15:28;;;;;;;;;;;;;;;;;;5094191;28;1265;-63
2022/12/04 07:17:53;;;;;;;;;;;;;;;;;;5094767;28;844;-64
2022/12/04 07:20:18;;;;;;;;;;;;;;;;;;5077569;28;1175;-64
2022/12/04 07:22:44;;;;;;;;;;;;;;;;;;5076571;28;1198;-64
2022/12/04 07:25:09;;;;;;;;;;;;;;;;;;5077358;28;1902;-64
2022/12/04 07:27:34;;;;;;;;;;;;;;;;;;5093870;28;1202;-63
2022/12/04 07:29:59;;;;;;;;;;;;;;;;;;5093972;28;1240;-63
2022/12/04 07:32:25;;;;;;;;;;;;;;;;;;5094223;28;896;-64
2022/12/04 07:34:50;;;;;;;;;;;;;;;;;;5092827;28;1151;-64
2022/12/04 07:37:15;;;;;;;;;;;;;;;;;;5095185;28;895;-63
2022/12/04 07:39:40;;;;;;;;;;;;;;;;;;5093301;28;1149;-63
2022/12/04 07:42:06;;;;;;;;;;;;;;;;;;5075745;28;1216;-63
2022/12/04 07:44:31;;;;;;;;;;;;;;;;;;5093206;28;1054;-63
2022/12/04 07:46:56;;;;;;;;;;;;;;;;;;5075805;28;1918;-64
2022/12/04 07:49:22;;;;;;;;;;;;;;;;;;5093222;28;1258;-64
2022/12/04 07:51:47;;;;;;;;;;;;;;;;;;5093143;28;1356;-64
2022/12/04 07:54:12;;;;;;;;;;;;;;;;;;5096577;28;1327;-64
2022/12/04 07:56:37;;;;;;;;;;;;;;;;;;5114335;28;1147;-65
2022/12/04 07:59:03;;;;;;;;;;;;;;;;;;5114204;28;951;-65
2022/12/04 08:01:29;;;;;;;;;;;;;;;;;;5113536;28;892;-65
2022/12/04 08:03:55;;;;;;;;;;;;;;;;;;5114242;27;852;-65
2022/12/04 08:06:21;;;;;;;;;;;;;;;;;;5114407;28;1901;-65
2022/12/04 08:08:47;;;;;;;;;;;;;;;;;;5114107;28;887;-66
2022/12/04 08:11:14;;;;;;;;;;;;;;;;;;5114758;28;742;-65
2022/12/04 08:13:39;;;;;;;;;;;;;;;;;;5112840;28;1133;-66
2022/12/04 08:16:06;;;;;;;;;;;;;;;;;;5114337;28;1234;-65
2022/12/04 08:18:31;;;;;;;;;;;;;;;;;;5114343;28;1152;-65
2022/12/04 08:21:03;;;;;;;;;;;;;;;;;;5113176;28;1231;-65
2022/12/04 08:23:28;;;;;;;;;;;;;;;;;;5114027;28;1035;-66
2022/12/04 08:25:56;;;;;;;;;;;;;;;;;;5113784;28;1955;-65
2022/12/04 08:28:22;;;;;;;;;;;;;;;;;;5112747;28;1086;-65
2022/12/04 08:30:47;;;;;;;;;;;;;;;;;;5112575;28;880;-65
2022/12/04 08:33:12;;;;;;;;;;;;;;;;;;5114480;28;913;-65
2022/12/04 08:35:38;;;;;;;;;;;;;;;;;;5113197;28;951;-64
2022/12/04 08:38:03;;;;;;;;;;;;;;;;;;5112279;28;1571;-66
2022/12/04 08:40:28;;;;;;;;;;;;;;;;;;5114093;28;853;-65
2022/12/04 08:42:53;;;;;;;;;;;;;;;;;;5095101;28;1209;-65
2022/12/04 08:45:19;;;;;;;;;;;;;;;;;;5114094;28;1965;-65
2022/12/04 08:47:44;;;;;;;;;;;;;;;;;;5095034;28;1182;-65
2022/12/04 08:50:09;;;;;;;;;;;;;;;;;;5112090;28;938;-65
2022/12/04 08:52:35;;;;;;;;;;;;;;;;;;5112152;28;1146;-65
2022/12/04 08:55:00;;;;;;;;;;;;;;;;;;5113499;28;888;-65
2022/12/04 08:57:25;;;;;;;;;;;;;;;;;;5112238;28;884;-65
2022/12/04 08:59:51;;;;;;;;;;;;;;;;;;5111513;28;884;-66
2022/12/04 09:02:16;;;;;;;;;;;;;;;;;;5111479;28;825;-66
2022/12/04 09:04:41;;;;;;;;;;;;;;;;;;5111741;28;1139;-65
2022/12/04 09:07:06;;;;;;;;;;;;;;;;;;5095402;28;1922;-66
2022/12/04 09:09:32;;;;;;;;;;;;;;;;;;5113814;28;904;-65
2022/12/04 09:11:57;;;;;;;;;;;;;;;;;;5113597;28;808;-66
2022/12/04 09:14:24;;;;;;;;;;;;;;;;;;5095710;28;1280;-66
2022/12/04 09:16:50;;;;;;;;;;;;;;;;;;5112001;28;1229;-66
2022/12/04 09:19:16;;;;;;;;;;;;;;;;;;5113776;28;832;-66
2022/12/04 09:21:41;;;;;;;;;;;;;;;;;;5112766;28;927;-66
2022/12/04 09:24:06;;;;;;;;;;;;;;;;;;5112922;28;805;-65
2022/12/04 09:26:32;;;;;;;;;;;;;;;;;;5112842;28;1909;-65
2022/12/04 09:28:59;;;;;;;;;;;;;;;;;;5112011;28;1134;-65
2022/12/04 09:31:24;;;;;;;;;;;;;;;;;;5111531;28;1229;-65
2022/12/04 09:33:50;;;;;;;;;;;;;;;;;;5110716;28;1395;-65
2022/12/04 09:36:16;;;;;;;;;;;;;;;;;;5111277;28;1324;-65
2022/12/04 09:38:43;;;;;;;;;;;;;;;;;;5112671;28;1077;-65
2022/12/04 09:41:26;;;;;;;;;;;;;;;;;;5112493;28;844;-65
2022/12/04 09:44:10;;;;;;;;;;;;;;;;;;5110893;28;828;-65
2022/12/04 09:46:37;;;;;;;;;;;;;;;;;;5112426;28;1914;-65
2022/12/04 09:49:08;;;;;;;;;;;;;;;;;;5112833;28;867;-66
2022/12/04 09:51:34;;;;;;;;;;;;;;;;;;5112386;28;1029;-65
2022/12/04 09:54:03;;;;;;;;;;;;;;;;;;5110921;28;1328;-65
2022/12/04 09:56:30;;;;;;;;;;;;;;;;;;5112758;28;883;-65
2022/12/04 09:59:07;;;;;;;;;;;;;;;;;;5110445;28;1115;-65
2022/12/04 10:01:42;;;;;;;;;;;;;;;;;;5111105;28;1157;-65
2022/12/04 10:04:09;;;;;;;;;;;;;;;;;;5110535;28;1309;-65
2022/12/04 10:06:39;;;;;;;;;;;;;;;;;;5112116;28;1898;-65
2022/12/04 10:09:15;;;;;;;;;;;;;;;;;;5110304;28;1433;-65
2022/12/04 10:11:41;;;;;;;;;;;;;;;;;;5111028;28;1463;-65
2022/12/04 10:14:29;;;;;;;;;;;;;;;;;;5111641;28;879;-65
2022/12/04 10:16:54;;;;;;;;;;;;;;;;;;5105262;28;1158;-65
2022/12/04 10:19:52;;;;;;;;;;;;;;;;;;5111859;28;879;-65
2022/12/04 10:22:29;;;;;;;;;;;;;;;;;;5087840;28;1168;-65
2022/12/04 10:25:17;;;;;;;;;;;;;;;;;;5111096;28;1961;-65
2022/12/04 10:27:50;;;;;;;;;;;;;;;;;;5105563;28;1590;-65
2022/12/04 10:30:18;;;;;;;;;;;;;;;;;;5112031;28;1250;-65
2022/12/04 10:32:44;;;;;;;;;;;;;;;;;;5110003;28;1280;-65
2022/12/04 10:35:24;;;;;;;;;;;;;;;;;;5109990;28;1451;-65
2022/12/04 10:37:57;;;;;;;;;;;;;;;;;;5109421;28;1348;-65
2022/12/04 10:40:47;;;;;;;;;;;;;;;;;;5110968;27;868;-65
2022/12/04 10:43:37;;;;;;;;;;;;;;;;;;5110556;28;1228;-65
2022/12/04 10:46:03;;;;;;;;;;;;;;;;;;5110604;28;1910;-65
2022/12/04 10:48:32;;;;;;;;;;;;;;;;;;5111692;28;1336;-65
2022/12/04 10:50:57;;;;;;;;;;;;;;;;;;5111950;28;884;-64
2022/12/04 10:53:28;;;;;;;;;;;;;;;;;;5113367;28;978;-64
2022/12/04 10:55:53;;;;;;;;;;;;;;;;;;5112008;28;837;-65
2022/12/04 10:58:19;;;;;;;;;;;;;;;;;;5110814;28;1046;-65
2022/12/04 11:00:55;;;;;;;;;;;;;;;;;;5110516;28;1213;-65
2022/12/04 11:03:26;;;;;;;;;;;;;;;;;;5112343;28;1046;-65
2022/12/04 11:05:59;;;;;;;;;;;;;;;;;;5110690;28;1898;-65
2022/12/04 11:08:33;;;;;;;;;;;;;;;;;;5110092;28;1281;-65
2022/12/04 11:11:04;;;;;;;;;;;;;;;;;;5111264;28;1034;-65
2022/12/04 11:13:29;;;;;;;;;;;;;;;;;;5110063;28;1221;-65
2022/12/04 11:15:56;;;;;;;;;;;;;;;;;;5110593;28;852;-65
2022/12/04 11:18:24;;;;;;;;;;;;;;;;;;5111376;28;983;-65
2022/12/04 11:20:56;;;;;;;;;;;;;;;;;;5110545;28;828;-65
2022/12/04 11:23:22;;;;;;;;;;;;;;;;;;5109999;28;1284;-65
2022/12/04 11:25:53;;;;;;;;;;;;;;;;;;5109309;28;1902;-64
2022/12/04 11:28:20;;;;;;;;;;;;;;;;;;5109807;28;1341;-64
2022/12/04 11:30:50;;;;;;;;;;;;;;;;;;5109784;28;1526;-64
2022/12/04 11:33:18;;;;;;;;;;;;;;;;;;5111396;28;812;-65
2022/12/04 11:35:50;;;;;;;;;;;;;;;;;;5109337;28;1271;-65
2022/12/04 11:38:16;;;;;;;;;;;;;;;;;;5110603;28;836;-64
2022/12/04 11:40:49;;;;;;;;;;;;;;;;;;5111117;28;1299;-64
2022/12/04 11:43:16;;;;;;;;;;;;;;;;;;5110955;28;797;-64
2022/12/04 11:45:52;;;;;;;;;;;;;;;;;;5110056;28;1908;-64
2022/12/04 11:48:17;;;;;;;;;;;;;;;;;;5110994;28;963;-65
2022/12/04 11:50:45;;;;;;;;;;;;;;;;;;5111128;28;824;-64
2022/12/04 11:53:11;;;;;;;;;;;;;;;;;;5113366;28;1308;-65
2022/12/04 11:55:46;;;;;;;;;;;;;;;;;;5114888;28;926;-65
2022/12/04 11:58:30;;;;;;;;;;;;;;;;;;5114409;28;816;-65
2022/12/04 12:01:13;;;;;;;;;;;;;;;;;;5114027;28;903;-65
2022/12/04 12:03:47;;;;;;;;;;;;;;;;;;5114614;28;840;-65
2022/12/04 12:06:31;;;;;;;;;;;;;;;;;;5113054;28;1949;-64
2022/12/04 12:09:16;;;;;;;;;;;;;;;;;;5113927;28;828;-65
2022/12/04 12:12:04;;;;;;;;;;;;;;;;;;5113150;28;1356;-66
2022/12/04 12:15:02;;;;;;;;;;;;;;;;;;5113222;28;1190;-66
2022/12/04 12:17:35;;;;;;;;;;;;;;;;;;5090710;28;1150;-67
2022/12/04 12:20:07;;;;;;;;;;;;;;;;;;5113878;28;907;-69
2022/12/04 12:22:42;;;;;;;;;;;;;;;;;;5113747;28;1221;-68
2022/12/04 12:25:18;;;;;;;;;;;;;;;;;;5113471;28;1970;-68
2022/12/04 12:27:49;;;;;;;;;;;;;;;;;;5114772;28;896;-67
2022/12/04 12:30:18;;;;;;;;;;;;;;;;;;5115068;28;1105;-67
2022/12/04 12:32:43;;;;;;;;;;;;;;;;;;5115058;28;896;-67
2022/12/04 12:35:17;;;;;;;;;;;;;;;;;;5113343;28;1217;-67
2022/12/04 12:37:46;;;;;;;;;;;;;;;;;;5114889;28;808;-67
2022/12/04 12:40:50;;;;;;;;;;;;;;;;;;5114612;28;808;-68
2022/12/04 12:43:21;;;;;;;;;;;;;;;;;;5055456;28;1227;-66
2022/12/04 12:46:04;;;;;;;;;;;;;;;;;;5071755;28;1985;-65
2022/12/04 12:48:52;;;;;;;;;;;;;;;;;;5098949;28;928;-66
2022/12/04 12:51:23;;;;;;;;;;;;;;;;;;5113735;28;1303;-66
2022/12/04 12:53:50;;;;;;;;;;;;;;;;;;5114298;28;930;-68
2022/12/04 12:56:17;;;;;;;;;;;;;;;;;;5113684;28;808;-68
2022/12/04 12:58:47;;;;;;;;;;;;;;;;;;5113812;28;848;-66
2022/12/04 13:01:31;;;;;;;;;;;;;;;;;;5112971;28;1266;-76
2022/12/04 13:04:16;;;;;;;;;;;;;;;;;;5112385;28;1347;-74
2022/12/04 13:06:42;;;;;;;;;;;;;;;;;;5114284;28;1893;-75
2022/12/04 13:09:20;;;;;;;;;;;;;;;;;;5105254;28;1143;-73
2022/12/04 13:11:49;;;;;;;;;;;;;;;;;;5095557;28;836;-74
2022/12/04 13:14:14;;;;;;;;;;;;;;;;;;5091770;28;1277;-69
2022/12/04 13:16:45;;;;;;;;;;;;;;;;;;5092516;28;1320;-67
2022/12/04 13:19:22;;;;;;;;;;;;;;;;;;5094203;28;828;-74
2022/12/04 13:21:54;;;;;;;;;;;;;;;;;;5092439;28;1111;-69
2022/12/04 13:24:38;;;;;;;;;;;;;;;;;;5093088;28;1222;-67
2022/12/04 13:27:11;;;;;;;;;;;;;;;;;;5093447;28;1944;-66
2022/12/04 13:29:57;;;;;;;;;;;;;;;;;;5096223;28;1237;-67
2022/12/04 13:32:32;;;;;;;;;;;;;;;;;;5063568;28;1279;-66
2022/12/04 13:35:00;;;;;;;;;;;;;;;;;;5091889;28;1404;-66
2022/12/04 13:37:34;;;;;;;;;;;;;;;;;;5094026;28;832;-67
2022/12/04 13:40:26;;;;;;;;;;;;;;;;;;5093687;28;820;-66
2022/12/04 13:42:51;;;;;;;;;;;;;;;;;;5090879;28;956;-67
2022/12/04 13:45:25;;;;;;;;;;;;;;;;;;5092551;28;1977;-67
2022/12/04 13:47:58;;;;;;;;;;;;;;;;;;5094204;28;829;-68
2022/12/04 13:50:28;;;;;;;;;;;;;;;;;;5074861;28;1333;-66
2022/12/04 13:52:54;;;;;;;;;;;;;;;;;;5093153;28;824;-70
2022/12/04 13:55:24;;;;;;;;;;;;;;;;;;5075186;28;1160;-75
2022/12/04 13:57:57;;;;;;;;;;;;;;;;;;5093206;28;865;-67
2022/12/04 14:00:32;;;;;;;;;;;;;;;;;;5093484;28;924;-68
2022/12/04 14:03:00;;;;;;;;;;;;;;;;;;5092369;28;840;-66
2022/12/04 14:05:30;;;;;;;;;;;;;;;;;;5092122;28;1964;-66
2022/12/04 14:08:00;;;;;;;;;;;;;;;;;;5091699;28;1367;-67
2022/12/04 14:10:32;;;;;;;;;;;;;;;;;;5092014;28;1325;-76
2022/12/04 14:12:57;;;;;;;;;;;;;;;;;;5090717;28;1163;-77
2022/12/04 14:15:24;;;;;;;;;;;;;;;;;;5101616;28;1329;-67
2022/12/04 14:18:00;;;;;;;;;;;;;;;;;;5089225;28;1238;-68
2022/12/04 14:20:35;;;;;;;;;;;;;;;;;;5090456;28;1245;-68
2022/12/04 14:23:25;;;;;;;;;;;;;;;;;;5091222;28;1053;-68
2022/12/04 14:25:55;;;;;;;;;;;;;;;;;;5091527;28;1902;-67
2022/12/04 14:28:23;;;;;;;;;;;;;;;;;;5091443;28;1254;-68
2022/12/04 14:31:07;;;;;;;;;;;;;;;;;;5090469;28;1421;-68
2022/12/04 14:33:37;;;;;;;;;;;;;;;;;;5092897;28;981;-68
2022/12/04 14:36:05;;;;;;;;;;;;;;;;;;5090114;28;1390;-67
2022/12/04 14:38:31;;;;;;;;;;;;;;;;;;5092201;28;821;-68
2022/12/04 14:40:57;;;;;;;;;;;;;;;;;;5094877;28;1361;-68
2022/12/04 14:43:28;;;;;;;;;;;;;;;;;;5106734;28;1171;-68
2022/12/04 14:46:01;;;;;;;;;;;;;;;;;;5110322;28;1906;-68
2022/12/04 14:48:45;;;;;;;;;;;;;;;;;;5110040;28;1205;-67
2022/12/04 14:51:33;;;;;;;;;;;;;;;;;;5109797;28;1428;-68
2022/12/04 14:54:17;;;;;;;;;;;;;;;;;;5111147;28;844;-67
2022/12/04 14:56:48;;;;;;;;;;;;;;;;;;5110401;28;1181;-68
2022/12/04 14:59:18;;;;;;;;;;;;;;;;;;5110687;28;824;-68
2022/12/04 15:01:44;;;;;;;;;;;;;;;;;;5110163;28;1271;-68
2022/12/04 15:04:24;;;;;;;;;;;;;;;;;;5110941;28;879;-67
2022/12/04 15:06:50;;;;;;;;;;;;;;;;;;5110088;28;1900;-67
2022/12/04 15:14:57;;;;;;;;;;;;;;;;;;5111744;28;790;-67
2022/12/04 15:17:23;;;;;;;;;;;;;;;;;;5110545;28;879;-67
2022/12/04 15:19:48;;;;;;;;;;;;;;;;;;5109833;28;1082;-67
2022/12/04 15:22:21;;;;;;;;;;;;;;;;;;5108871;28;1065;-67
2022/12/04 15:24:46;;;;;;;;;;;;;;;;;;5110961;28;931;-67
2022/12/04 15:27:12;;;;;;;;;;;;;;;;;;5112281;28;1960;-67
2022/12/04 15:29:41;;;;;;;;;;;;;;;;;;5096995;28;1262;-67
2022/12/04 15:32:10;;;;;;;;;;;;;;;;;;5096112;28;1317;-67
2022/12/04 15:34:46;;;;;;;;;;;;;;;;;;5113183;28;1489;-67
2022/12/04 15:37:18;;;;;;;;;;;;;;;;;;5114454;28;954;-67
2022/12/04 15:39:44;;;;;;;;;;;;;;;;;;5114579;28;809;-67
2022/12/04 15:42:21;;;;;;;;;;;;;;;;;;5111160;28;1129;-67
2022/12/04 15:44:51;;;;;;;;;;;;;;;;;;5114694;28;812;-66
2022/12/04 15:47:19;;;;;;;;;;;;;;;;;;5114012;28;1976;-67
2022/12/04 15:49:45;;;;;;;;;;;;;;;;;;5114441;28;1189;-66
2022/12/04 15:52:17;;;;;;;;;;;;;;;;;;5095598;28;1381;-67
2022/12/04 15:54:55;;;;;;;;;;;;;;;;;;5114492;28;876;-67
2022/12/04 15:57:26;;;;;;;;;;;;;;;;;;5114133;28;899;-67
2022/12/04 15:59:53;;;;;;;;;;;;;;;;;;5114326;28;808;-67
2022/12/04 16:02:29;;;;;;;;;;;;;;;;;;5113691;27;871;-67
2022/12/04 16:04:54;;;;;;;;;;;;;;;;;;5115170;28;918;-67
2022/12/04 16:07:27;;;;;;;;;;;;;;;;;;5113398;28;1893;-67
2022/12/04 16:09:54;;;;;;;;;;;;;;;;;;5114120;28;1487;-67
2022/12/04 16:12:24;;;;;;;;;;;;;;;;;;5114254;28;792;-67
2022/12/04 16:14:51;;;;;;;;;;;;;;;;;;5115295;27;867;-67
2022/12/04 16:17:17;;;;;;;;;;;;;;;;;;5112999;28;1208;-67
2022/12/04 16:19:43;;;;;;;;;;;;;;;;;;5114325;28;805;-68
2022/12/04 16:22:11;;;;;;;;;;;;;;;;;;5113866;28;875;-67
2022/12/04 16:24:38;;;;;;;;;;;;;;;;;;5114373;28;885;-67
2022/12/04 16:27:08;;;;;;;;;;;;;;;;;;5112736;28;1925;-67
2022/12/04 16:29:34;;;;;;;;;;;;;;;;;;5113682;28;1187;-67
2022/12/04 16:32:00;;;;;;;;;;;;;;;;;;5095554;28;1476;-67
2022/12/04 16:34:25;;;;;;;;;;;;;;;;;;5112961;28;1329;-67
2022/12/04 16:36:50;;;;;;;;;;;;;;;;;;5112309;28;1108;-67
2022/12/04 16:39:15;;;;;;;;;;;;;;;;;;5110954;28;1337;-67
2022/12/04 16:41:41;;;;;;;;;;;;;;;;;;5113091;28;808;-67
2022/12/04 16:44:13;;;;;;;;;;;;;;;;;;5112197;28;1234;-67
2022/12/04 16:46:39;;;;;;;;;;;;;;;;;;5113977;28;1982;-67
2022/12/04 16:49:04;;;;;;;;;;;;;;;;;;5113543;28;887;-67
2022/12/04 16:51:29;;;;;;;;;;;;;;;;;;5112529;28;923;-67
2022/12/04 16:53:55;;;;;;;;;;;;;;;;;;5112723;28;967;-68
2022/12/04 16:56:20;;;;;;;;;;;;;;;;;;5094175;28;1606;-67
2022/12/04 16:58:46;;;;;;;;;;;;;;;;;;5113386;28;931;-67
2022/12/04 17:01:20;;;;;;;;;;;;;;;;;;5113664;28;887;-67
2022/12/04 17:03:45;;;;;;;;;;;;;;;;;;5114367;27;843;-67
2022/12/04 17:06:10;;;;;;;;;;;;;;;;;;5113246;28;1964;-67
2022/12/04 17:08:36;;;;;;;;;;;;;;;;;;5113624;28;891;-67
2022/12/04 17:11:01;;;;;;;;;;;;;;;;;;5113263;28;1002;-68
2022/12/04 17:13:26;;;;;;;;;;;;;;;;;;5113386;28;828;-67
2022/12/04 17:15:52;;;;;;;;;;;;;;;;;;5112346;28;875;-68
2022/12/04 17:18:17;;;;;;;;;;;;;;;;;;5111859;28;844;-67
2022/12/04 17:20:43;;;;;;;;;;;;;;;;;;5113631;28;1065;-67
2022/12/04 17:23:09;;;;;;;;;;;;;;;;;;5111449;28;1202;-67
2022/12/04 17:25:34;;;;;;;;;;;;;;;;;;5112915;28;1890;-67
2022/12/04 17:27:59;;;;;;;;;;;;;;;;;;5112964;28;829;-66
2022/12/04 17:30:25;;;;;;;;;;;;;;;;;;5110888;28;1116;-67
2022/12/04 17:32:50;;;;;;;;;;;;;;;;;;5112039;28;1368;-67
2022/12/04 17:35:15;;;;;;;;;;;;;;;;;;5113257;28;907;-67
2022/12/04 17:37:41;;;;;;;;;;;;;;;;;;5095407;28;1242;-67
2022/12/04 17:40:08;;;;;;;;;;;;;;;;;;5112111;28;1316;-67
2022/12/04 17:42:33;;;;;;;;;;;;;;;;;;5095084;28;1333;-67